Royal Prince — WCX8037 — position and weather

sailwx.info

Track history (hours):
 
Tides and Currents Weather Stations Pressure Air Temp Water Temp Dewpoint Dewpoint Depression Visibility Wind Speed Wind Dir Waves Ship Positions

Royal Prince

More information available from US FCC via Universal Licensing System and Coast Guard Vessel Documentation Center.

Last reported at 2014-Jul-23 04:09 UTC. Time now 2014-Jul-23 05:50 UTC.
Position N 37°49' W 122°25'.

Length 28 m; draft 2.3 m.

Type: Passenger vessel. MMSI: 366975760.

Date/timePositionNaut miles runAvg speedWind from/ knotsBaromVisibWave heightAir tempDewpointWater temp
2014-Jul-23 04:09N 37°49' W 122°25'3 5.0
2014-Jul-23 03:33N 37°49' W 122°29'4 3.7
2014-Jul-23 02:33N 37°51' W 122°25'3 2.6
2014-Jul-23 01:33N 37°49' W 122°25'0 0.0
2014-Jul-23 00:33N 37°49' W 122°25'2 1.8
2014-Jul-22 23:33N 37°49' W 122°27'1 0.7
2014-Jul-22 22:33N 37°50' W 122°27'2 2.2
2014-Jul-22 21:33N 37°49' W 122°25'0 0.4
2014-Jul-22 20:33N 37°49' W 122°25'2 2.4
2014-Jul-22 19:33N 37°49' W 122°28'2 2.4
2014-Jul-22 18:33N 37°49' W 122°25'1 0.8
2014-Jul-22 17:33N 37°49' W 122°25'0 0.0
2014-Jul-22 04:10N 37°49' W 122°25'3 5.0
2014-Jul-22 03:33N 37°49' W 122°29'3 3.2
2014-Jul-22 02:33N 37°51' W 122°25'2 2.3
2014-Jul-22 01:33N 37°49' W 122°25'0 0.0
2014-Jul-22 00:33N 37°49' W 122°25'2 2.1
2014-Jul-21 23:33N 37°49' W 122°28'1 0.5
2014-Jul-21 22:33N 37°49' W 122°28'3 2.6
2014-Jul-21 21:33N 37°49' W 122°24'0 0.4
2014-Jul-21 20:33N 37°49' W 122°25'0 0.0
2014-Jul-21 20:18N 37°49' W 122°25'2 3.3
2014-Jul-21 19:33N 37°49' W 122°28'3 2.6
2014-Jul-21 18:33N 37°49' W 122°25'1 0.7
2014-Jul-21 17:33N 37°49' W 122°25'0 0.0
2014-Jul-21 16:33N 37°49' W 122°25'0 0.0
2014-Jul-21 15:33N 37°49' W 122°25'0 0.0
2014-Jul-21 04:10N 37°49' W 122°25'3 5.3
2014-Jul-21 03:33N 37°49' W 122°29'3 3.1
2014-Jul-21 02:33N 37°51' W 122°25'2 2.1
2014-Jul-21 01:33N 37°49' W 122°25'0 0.0
2014-Jul-21 00:33N 37°49' W 122°25'2 2.3
2014-Jul-20 23:33N 37°49' W 122°28'1 0.9
2014-Jul-20 22:33N 37°50' W 122°27'2 1.9
2014-Jul-20 21:33N 37°49' W 122°25'0 0.3
2014-Jul-20 20:33N 37°49' W 122°25'2 2.2
2014-Jul-20 19:33N 37°49' W 122°27'2 1.8
2014-Jul-20 18:33N 37°50' W 122°25'1 1.0
2014-Jul-20 17:33N 37°49' W 122°25'0 0.0
2014-Jul-20 04:07N 37°49' W 122°25'2 4.3
2014-Jul-20 03:34N 37°49' W 122°28'3 3.5
2014-Jul-20 02:34N 37°51' W 122°25'3 2.8
2014-Jul-20 01:34N 37°49' W 122°25'0 0.0
2014-Jul-20 00:34N 37°49' W 122°25'1 1.1
2014-Jul-19 23:34N 37°49' W 122°26'1 1.4
2014-Jul-19 22:34N 37°49' W 122°28'3 2.8
2014-Jul-19 21:34N 37°49' W 122°24'1 0.6
2014-Jul-19 20:33N 37°49' W 122°25'3 2.5
2014-Jul-19 19:34N 37°49' W 122°28'2 2.5
2014-Jul-19 18:33N 37°49' W 122°25'1 0.8
2014-Jul-19 17:33N 37°49' W 122°25'0 0.0
2014-Jul-19 14:27N 37°49' W 122°25'0 0.0
2014-Jul-19 13:34N 37°49' W 122°25'0 0.0
2014-Jul-19 04:03N 37°49' W 122°25'2 3.3
2014-Jul-19 03:34N 37°49' W 122°27'4 3.7
2014-Jul-19 02:34N 37°52' W 122°25'4 3.7
2014-Jul-19 01:34N 37°49' W 122°25'0 0.0
2014-Jul-19 00:34N 37°49' W 122°25'3 2.5
2014-Jul-18 23:33N 37°49' W 122°28'1 1.0
2014-Jul-18 22:33N 37°50' W 122°27'2 2.2
2014-Jul-18 21:34N 37°49' W 122°24'0 0.4
2014-Jul-18 20:34N 37°49' W 122°25'2 1.9
2014-Jul-18 19:33N 37°50' W 122°27'2 2.0
2014-Jul-18 18:34N 37°49' W 122°25'0 0.4
2014-Jul-18 17:34N 37°49' W 122°25'0 0.0
2014-Jul-18 04:10N 37°49' W 122°25'2 4.0
2014-Jul-18 03:33N 37°49' W 122°28'4 3.5
2014-Jul-18 02:33N 37°51' W 122°25'2 2.4
2014-Jul-18 01:33N 37°49' W 122°25'0 0.0
2014-Jul-18 00:33N 37°49' W 122°25'3 2.6
2014-Jul-17 23:33N 37°49' W 122°28'1 1.0
2014-Jul-17 22:33N 37°49' W 122°27'2 1.9
2014-Jul-17 21:33N 37°49' W 122°25'0 0.3
2014-Jul-17 20:33N 37°49' W 122°25'2 1.7
2014-Jul-17 19:33N 37°49' W 122°27'2 2.0
2014-Jul-17 18:33N 37°49' W 122°24'1 0.7
2014-Jul-17 17:34N 37°49' W 122°25'0 0.0
2014-Jul-17 16:07N 37°49' W 122°25'0 0.0
2014-Jul-17 04:08N 37°49' W 122°25'3 5.3
2014-Jul-17 03:33N 37°49' W 122°29'3 3.4
2014-Jul-17 02:33N 37°51' W 122°25'2 2.3
2014-Jul-17 01:33N 37°49' W 122°25'0 0.0
2014-Jul-17 00:33N 37°49' W 122°25'2 2.4
2014-Jul-16 23:33N 37°49' W 122°28'1 0.7
2014-Jul-16 22:33N 37°49' W 122°27'2 2.1
2014-Jul-16 21:33N 37°49' W 122°25'0 0.3
2014-Jul-16 20:33N 37°49' W 122°25'2 2.4
2014-Jul-16 19:33N 37°50' W 122°28'3 2.6
2014-Jul-16 18:33N 37°49' W 122°24'1 0.7
2014-Jul-16 17:33N 37°49' W 122°25'0 0.0
2014-Jul-16 04:11N 37°49' W 122°25'3 5.3
2014-Jul-16 03:33N 37°49' W 122°29'4 4.0
2014-Jul-16 02:33N 37°51' W 122°25'3 2.8
2014-Jul-16 01:33N 37°49' W 122°25'0 0.0
2014-Jul-16 00:33N 37°49' W 122°25'3 2.8
2014-Jul-15 23:33N 37°49' W 122°28'1 1.3
2014-Jul-15 22:33N 37°50' W 122°27'2 2.1
2014-Jul-15 21:33N 37°49' W 122°24'0 0.5
2014-Jul-15 20:33N 37°49' W 122°25'2 2.0
2014-Jul-15 19:33N 37°50' W 122°27'2 2.2
2014-Jul-15 18:33N 37°49' W 122°24'1 0.6
2014-Jul-15 17:33N 37°49' W 122°25'0 0.0
2014-Jul-15 04:04N 37°49' W 122°25'3 6.1
2014-Jul-15 03:33N 37°49' W 122°29'4 3.6
2014-Jul-15 02:33N 37°51' W 122°25'3 2.6
2014-Jul-15 01:33N 37°49' W 122°25'0 0.0
2014-Jul-15 00:33N 37°49' W 122°25'2 2.3
2014-Jul-14 23:33N 37°49' W 122°28'1 0.6
2014-Jul-14 22:33N 37°50' W 122°28'3 2.6
2014-Jul-14 21:33N 37°49' W 122°24'1 0.7
2014-Jul-14 20:33N 37°49' W 122°25'2 2.3
2014-Jul-14 19:33N 37°50' W 122°27'2 2.1
2014-Jul-14 18:33N 37°49' W 122°25'1 0.9
2014-Jul-14 17:34N 37°49' W 122°25'0 0.0
2014-Jul-14 04:07N 37°49' W 122°25'3 4.7
2014-Jul-14 03:33N 37°49' W 122°28'3 3.4
2014-Jul-14 02:33N 37°51' W 122°25'3 2.5
2014-Jul-14 01:33N 37°49' W 122°25'0 0.0
2014-Jul-14 00:33N 37°49' W 122°25'3 2.6
2014-Jul-13 23:33N 37°49' W 122°28'1 0.7
2014-Jul-13 22:33N 37°49' W 122°27'2 2.2
2014-Jul-13 21:33N 37°49' W 122°25'0 0.3
2014-Jul-13 20:33N 37°49' W 122°25'2 2.4
2014-Jul-13 19:33N 37°49' W 122°28'3 2.8
2014-Jul-13 18:33N 37°49' W 122°24'1 0.6
2014-Jul-13 17:33N 37°49' W 122°25'0 0.0
2014-Jul-13 04:25N 37°49' W 122°25'  
Track history (hours):
 
Tides and Currents Weather Stations Pressure Air Temp Water Temp Dewpoint Dewpoint Depression Visibility Wind Speed Wind Dir Waves Ship Positions

Royal Prince

More information available from US FCC via Universal Licensing System and Coast Guard Vessel Documentation Center.

Last reported at 2014-Jul-23 04:09 UTC. Time now 2014-Jul-23 05:50 UTC.
Position N 37°49' W 122°25'.

Length 28 m; draft 2.3 m.

Type: Passenger vessel. MMSI: 366975760.

Date/timePositionNaut miles runAvg speedWind from/ knotsBaromVisibWave heightAir tempDewpointWater temp
2014-Jul-23 04:09N 37°49' W 122°25'3 5.0
2014-Jul-23 03:33N 37°49' W 122°29'4 3.7
2014-Jul-23 02:33N 37°51' W 122°25'3 2.6
2014-Jul-23 01:33N 37°49' W 122°25'0 0.0
2014-Jul-23 00:33N 37°49' W 122°25'2 1.8
2014-Jul-22 23:33N 37°49' W 122°27'1 0.7
2014-Jul-22 22:33N 37°50' W 122°27'2 2.2
2014-Jul-22 21:33N 37°49' W 122°25'0 0.4
2014-Jul-22 20:33N 37°49' W 122°25'2 2.4
2014-Jul-22 19:33N 37°49' W 122°28'2 2.4
2014-Jul-22 18:33N 37°49' W 122°25'1 0.8
2014-Jul-22 17:33N 37°49' W 122°25'0 0.0
2014-Jul-22 04:10N 37°49' W 122°25'3 5.0
2014-Jul-22 03:33N 37°49' W 122°29'3 3.2
2014-Jul-22 02:33N 37°51' W 122°25'2 2.3
2014-Jul-22 01:33N 37°49' W 122°25'0 0.0
2014-Jul-22 00:33N 37°49' W 122°25'2 2.1
2014-Jul-21 23:33N 37°49' W 122°28'1 0.5
2014-Jul-21 22:33N 37°49' W 122°28'3 2.6
2014-Jul-21 21:33N 37°49' W 122°24'0 0.4
2014-Jul-21 20:33N 37°49' W 122°25'0 0.0
2014-Jul-21 20:18N 37°49' W 122°25'2 3.3
2014-Jul-21 19:33N 37°49' W 122°28'3 2.6
2014-Jul-21 18:33N 37°49' W 122°25'1 0.7
2014-Jul-21 17:33N 37°49' W 122°25'0 0.0
2014-Jul-21 16:33N 37°49' W 122°25'0 0.0
2014-Jul-21 15:33N 37°49' W 122°25'0 0.0
2014-Jul-21 04:10N 37°49' W 122°25'3 5.3
2014-Jul-21 03:33N 37°49' W 122°29'3 3.1
2014-Jul-21 02:33N 37°51' W 122°25'2 2.1
2014-Jul-21 01:33N 37°49' W 122°25'0 0.0
2014-Jul-21 00:33N 37°49' W 122°25'2 2.3
2014-Jul-20 23:33N 37°49' W 122°28'1 0.9
2014-Jul-20 22:33N 37°50' W 122°27'2 1.9
2014-Jul-20 21:33N 37°49' W 122°25'0 0.3
2014-Jul-20 20:33N 37°49' W 122°25'2 2.2
2014-Jul-20 19:33N 37°49' W 122°27'2 1.8
2014-Jul-20 18:33N 37°50' W 122°25'1 1.0
2014-Jul-20 17:33N 37°49' W 122°25'0 0.0
2014-Jul-20 04:07N 37°49' W 122°25'2 4.3
2014-Jul-20 03:34N 37°49' W 122°28'3 3.5
2014-Jul-20 02:34N 37°51' W 122°25'3 2.8
2014-Jul-20 01:34N 37°49' W 122°25'0 0.0
2014-Jul-20 00:34N 37°49' W 122°25'1 1.1
2014-Jul-19 23:34N 37°49' W 122°26'1 1.4
2014-Jul-19 22:34N 37°49' W 122°28'3 2.8
2014-Jul-19 21:34N 37°49' W 122°24'1 0.6
2014-Jul-19 20:33N 37°49' W 122°25'3 2.5
2014-Jul-19 19:34N 37°49' W 122°28'2 2.5
2014-Jul-19 18:33N 37°49' W 122°25'1 0.8
2014-Jul-19 17:33N 37°49' W 122°25'0 0.0
2014-Jul-19 14:27N 37°49' W 122°25'0 0.0
2014-Jul-19 13:34N 37°49' W 122°25'0 0.0
2014-Jul-19 04:03N 37°49' W 122°25'2 3.3
2014-Jul-19 03:34N 37°49' W 122°27'4 3.7
2014-Jul-19 02:34N 37°52' W 122°25'4 3.7
2014-Jul-19 01:34N 37°49' W 122°25'0 0.0
2014-Jul-19 00:34N 37°49' W 122°25'3 2.5
2014-Jul-18 23:33N 37°49' W 122°28'1 1.0
2014-Jul-18 22:33N 37°50' W 122°27'2 2.2
2014-Jul-18 21:34N 37°49' W 122°24'0 0.4
2014-Jul-18 20:34N 37°49' W 122°25'2 1.9
2014-Jul-18 19:33N 37°50' W 122°27'2 2.0
2014-Jul-18 18:34N 37°49' W 122°25'0 0.4
2014-Jul-18 17:34N 37°49' W 122°25'0 0.0
2014-Jul-18 04:10N 37°49' W 122°25'2 4.0
2014-Jul-18 03:33N 37°49' W 122°28'4 3.5
2014-Jul-18 02:33N 37°51' W 122°25'2 2.4
2014-Jul-18 01:33N 37°49' W 122°25'0 0.0
2014-Jul-18 00:33N 37°49' W 122°25'3 2.6
2014-Jul-17 23:33N 37°49' W 122°28'1 1.0
2014-Jul-17 22:33N 37°49' W 122°27'2 1.9
2014-Jul-17 21:33N 37°49' W 122°25'0 0.3
2014-Jul-17 20:33N 37°49' W 122°25'2 1.7
2014-Jul-17 19:33N 37°49' W 122°27'2 2.0
2014-Jul-17 18:33N 37°49' W 122°24'1 0.7
2014-Jul-17 17:34N 37°49' W 122°25'0 0.0
2014-Jul-17 16:07N 37°49' W 122°25'0 0.0
2014-Jul-17 04:08N 37°49' W 122°25'3 5.3
2014-Jul-17 03:33N 37°49' W 122°29'3 3.4
2014-Jul-17 02:33N 37°51' W 122°25'2 2.3
2014-Jul-17 01:33N 37°49' W 122°25'0 0.0
2014-Jul-17 00:33N 37°49' W 122°25'2 2.4
2014-Jul-16 23:33N 37°49' W 122°28'1 0.7
2014-Jul-16 22:33N 37°49' W 122°27'2 2.1
2014-Jul-16 21:33N 37°49' W 122°25'0 0.3
2014-Jul-16 20:33N 37°49' W 122°25'2 2.4
2014-Jul-16 19:33N 37°50' W 122°28'3 2.6
2014-Jul-16 18:33N 37°49' W 122°24'1 0.7
2014-Jul-16 17:33N 37°49' W 122°25'0 0.0
2014-Jul-16 04:11N 37°49' W 122°25'3 5.3
2014-Jul-16 03:33N 37°49' W 122°29'4 4.0
2014-Jul-16 02:33N 37°51' W 122°25'3 2.8
2014-Jul-16 01:33N 37°49' W 122°25'0 0.0
2014-Jul-16 00:33N 37°49' W 122°25'3 2.8
2014-Jul-15 23:33N 37°49' W 122°28'1 1.3
2014-Jul-15 22:33N 37°50' W 122°27'2 2.1
2014-Jul-15 21:33N 37°49' W 122°24'0 0.5
2014-Jul-15 20:33N 37°49' W 122°25'2 2.0
2014-Jul-15 19:33N 37°50' W 122°27'2 2.2
2014-Jul-15 18:33N 37°49' W 122°24'1 0.6
2014-Jul-15 17:33N 37°49' W 122°25'0 0.0
2014-Jul-15 04:04N 37°49' W 122°25'3 6.1
2014-Jul-15 03:33N 37°49' W 122°29'4 3.6
2014-Jul-15 02:33N 37°51' W 122°25'3 2.6
2014-Jul-15 01:33N 37°49' W 122°25'0 0.0
2014-Jul-15 00:33N 37°49' W 122°25'2 2.3
2014-Jul-14 23:33N 37°49' W 122°28'1 0.6
2014-Jul-14 22:33N 37°50' W 122°28'3 2.6
2014-Jul-14 21:33N 37°49' W 122°24'1 0.7
2014-Jul-14 20:33N 37°49' W 122°25'2 2.3
2014-Jul-14 19:33N 37°50' W 122°27'2 2.1
2014-Jul-14 18:33N 37°49' W 122°25'1 0.9
2014-Jul-14 17:34N 37°49' W 122°25'0 0.0
2014-Jul-14 04:07N 37°49' W 122°25'3 4.7
2014-Jul-14 03:33N 37°49' W 122°28'3 3.4
2014-Jul-14 02:33N 37°51' W 122°25'3 2.5
2014-Jul-14 01:33N 37°49' W 122°25'0 0.0
2014-Jul-14 00:33N 37°49' W 122°25'3 2.6
2014-Jul-13 23:33N 37°49' W 122°28'1 0.7
2014-Jul-13 22:33N 37°49' W 122°27'2 2.2
2014-Jul-13 21:33N 37°49' W 122°25'0 0.3
2014-Jul-13 20:33N 37°49' W 122°25'2 2.4
2014-Jul-13 19:33N 37°49' W 122°28'3 2.8
2014-Jul-13 18:33N 37°49' W 122°24'1 0.6
2014-Jul-13 17:33N 37°49' W 122°25'0 0.0
2014-Jul-13 04:25N 37°49' W 122°25'  

Dump ship's entire track history